Time;durP1;ratioP1;P1;durP2;ratioP2;P2;SDS_P1;SDS_P2;PMS_P1;PMS_P2;Temp;Humidity;BMP_temperature;BMP_pressure;BME280_temperature;BME280_humidity;BME280_pressure;Samples;Min_cycle;Max_cycle;Signal;HPM_P1;HPM_P2
2023/01/19 00:00:41;;;;;;;21.58;14.68;;;;;;;;;;5030303;28;20045;-82
2023/01/19 00:03:14;;;;;;;18.90;12.52;;;;;;;1.31;100.00;66918.94;5027449;28;20032;-83
2023/01/19 00:05:41;;;;;;;17.42;13.23;;;;;;;;;;5026729;28;20405;-83
2023/01/19 00:08:15;;;;;;;21.80;14.65;;;;;;;;;;5031055;28;20416;-83
2023/01/19 00:10:43;;;;;;;21.65;16.67;;;;;;;1.32;100.00;66927.91;5031925;28;20056;-84
2023/01/19 00:13:08;;;;;;;19.77;13.60;;;;;;;1.33;100.00;66929.06;5038376;28;20045;-83
2023/01/19 00:15:34;;;;;;;26.25;17.70;;;;;;;1.33;100.00;66929.06;5033181;28;20461;-83
2023/01/19 00:17:59;;;;;;;21.50;16.40;;;;;;;1.31;100.00;66927.38;5030486;28;20386;-83
2023/01/19 00:20:24;;;;;;;20.83;16.17;;;;;;;1.32;100.00;66925.31;5031810;28;20492;-84
2023/01/19 00:22:50;;;;;;;22.90;14.93;;;;;;;;;;5028667;28;20060;-84
2023/01/19 00:25:16;;;;;;;20.60;13.85;;;;;;;1.19;100.00;66913.84;5032777;28;20132;-83
2023/01/19 00:27:48;;;;;;;24.83;15.82;;;;;;;1.12;100.00;66903.34;5029485;28;20042;-83
2023/01/19 00:30:16;;;;;;;25.25;20.27;;;;;;;1.08;100.00;66899.41;5032148;28;20044;-83
2023/01/19 00:32:42;;;;;;;21.65;15.60;;;;;;;;;;5033041;28;20048;-83
2023/01/19 00:35:07;;;;;;;24.88;17.48;;;;;;;1.03;100.00;66893.22;5031326;28;20481;-83
2023/01/19 00:37:33;;;;;;;29.45;20.45;;;;;;;1.04;100.00;66894.38;5031194;28;20099;-84
2023/01/19 00:39:58;;;;;;;29.08;22.30;;;;;;;1.04;100.00;66894.91;5031824;28;20041;-84
2023/01/19 00:42:38;;;;;;;23.88;15.52;;;;;;;1.04;100.00;66889.69;5030714;28;20045;-84
2023/01/19 00:45:05;;;;;;;26.63;19.63;;;;;;;;;;5043614;28;20053;-84
2023/01/19 00:47:31;;;;;;;27.73;19.52;;;;;;;1.02;100.00;66892.66;5027401;28;20107;-84
2023/01/19 00:49:56;;;;;;;28.08;18.60;;;;;;;1.01;100.00;66896.78;5031070;28;20581;-84
2023/01/19 00:52:21;;;;;;;29.05;16.02;;;;;;;1.02;100.00;66892.09;5028580;28;20088;-84
2023/01/19 00:54:47;;;;;;;30.95;19.65;;;;;;;1.02;100.00;66895.28;5025802;28;20061;-84
2023/01/19 00:57:14;;;;;;;34.47;24.80;;;;;;;1.01;100.00;66894.16;5028863;28;20086;-84
2023/01/19 00:59:39;;;;;;;23.33;13.90;;;;;;;1.00;100.00;66893.03;5039636;28;20060;-83
2023/01/19 01:02:05;;;;;;;26.73;16.88;;;;;;;;;;5034014;28;20041;-83
2023/01/19 01:04:30;;;;;;;30.05;18.15;;;;;;;1.07;100.00;66897.75;5030764;28;20044;-84
2023/01/19 01:06:55;;;;;;;31.13;20.42;;;;;;;1.09;100.00;66900.56;5030714;28;20041;-84
2023/01/19 01:09:21;;;;;;;29.58;22.27;;;;;;;1.10;100.00;66901.13;5032416;28;20123;-84
2023/01/19 01:11:46;;;;;;;33.00;22.63;;;;;;;1.11;100.00;66902.22;5027037;28;20132;-84
2023/01/19 01:14:12;;;;;;;34.25;21.88;;;;;;;1.12;100.00;66903.34;5028798;28;20176;-84
2023/01/19 01:16:38;;;;;;;32.83;24.13;;;;;;;1.16;100.00;66909.94;5036735;28;20057;-83
2023/01/19 01:19:03;;;;;;;24.98;16.58;;;;;;;1.15;100.00;66906.16;5029063;28;20053;-84
2023/01/19 01:21:28;;;;;;;27.65;16.20;;;;;;;1.19;100.00;66910.69;5031701;28;20342;-83
2023/01/19 01:23:54;;;;;;;29.92;19.58;;;;;;;;;;5032046;28;20048;-83
2023/01/19 01:26:19;;;;;;;30.20;20.45;;;;;;;1.21;100.00;66907.69;5026260;28;20038;-84
2023/01/19 01:28:44;;;;;;;32.20;23.52;;;;;;;1.21;100.00;66908.25;5031599;28;20049;-83
2023/01/19 01:31:10;;;;;;;25.45;16.48;;;;;;;1.19;100.00;66910.69;5029721;28;20627;-84
2023/01/19 01:33:35;;;;;;;27.48;16.73;;;;;;;;;;5030370;28;20041;-84
2023/01/19 01:36:00;;;;;;;30.00;21.73;;;;;;;1.20;100.00;66911.81;5036184;28;20052;-83
2023/01/19 01:38:26;;;;;;;31.08;22.85;;;;;;;1.18;100.00;66909.53;5035160;28;20175;-84
2023/01/19 01:40:51;;;;;;;30.60;20.52;;;;;;;1.19;100.00;66913.31;5029860;28;20045;-84
2023/01/19 01:43:19;;;;;;;30.00;18.10;;;;;;;1.17;100.00;66908.97;5041653;28;20382;-83
2023/01/19 01:45:45;;;;;;;32.47;21.80;;;;;;;1.18;100.00;66909.53;5034407;28;20037;-83
2023/01/19 01:48:23;;;;;;;32.15;22.92;;;;;;;1.15;100.00;66906.72;5034935;28;20048;-83
2023/01/19 01:53:44;;;;;;;29.77;17.95;;;;;;;1.08;100.00;66898.84;5032985;28;20454;-83
2023/01/19 01:56:16;;;;;;;30.33;21.33;;;;;;;1.06;100.00;66897.16;5033194;28;20048;-84
2023/01/19 01:58:42;;;;;;;37.38;25.25;;;;;;;;;;5031891;28;20109;-83
2023/01/19 02:03:52;;;;;;;36.42;24.73;;;;;;;1.01;100.00;66891.53;5034359;28;20104;-83
2023/01/19 02:06:18;;;;;;;30.30;20.10;;;;;;;0.98;100.00;66890.22;5032564;28;20041;-84
2023/01/19 02:14:23;;;;;;;25.35;17.38;;;;;;;0.96;100.00;66885.91;5035048;28;20201;-84
2023/01/19 02:16:49;;;;;;;27.35;18.23;;;;;;;0.96;100.00;66890.59;5038076;28;20574;-83
2023/01/19 02:19:40;;;;;;;29.17;17.08;;;;;;;0.90;100.00;66884.41;5036856;28;20038;-83
2023/01/19 02:22:13;;;;;;;22.65;13.48;;;;;;;0.89;100.00;66878.03;5051582;28;20103;-83
2023/01/19 02:24:39;;;;;;;33.85;15.65;;;;;;;0.88;100.00;66877.47;5029970;28;20057;-83
2023/01/19 02:27:06;;;;;;;34.67;22.65;;;;;;;0.89;100.00;66873.38;5037209;28;20123;-83
2023/01/19 02:29:32;;;;;;;37.30;25.27;;;;;;;;;;5032848;28;20045;-83
2023/01/19 02:31:58;;;;;;;26.45;14.45;;;;;;;0.96;100.00;66885.34;5029489;28;20096;-83
2023/01/19 02:34:24;;;;;;;26.33;15.45;;;;;;;0.98;100.00;66890.78;5043060;28;20581;-83
2023/01/19 02:36:57;;;;;;;30.38;20.40;;;;;;;1.03;100.00;66896.41;5035198;28;20044;-83
2023/01/19 02:39:26;;;;;;;35.13;25.48;;;;;;;;;;5032457;28;20045;-83
2023/01/19 02:41:58;;;;;;;26.88;15.77;;;;;;;1.09;100.00;66900.56;5033754;28;20069;-83
2023/01/19 02:44:25;;;;;;;30.30;19.05;;;;;;;1.14;100.00;66908.22;5031259;28;20049;-83
2023/01/19 02:46:53;;;;;;;32.75;21.05;;;;;;;1.15;100.00;66908.78;5030747;28;20044;-83
2023/01/19 02:49:18;;;;;;;31.10;19.10;;;;;;;;;;5028573;28;20072;-84
2023/01/19 02:51:43;;;;;;;30.77;17.88;;;;;;;;;;5034138;28;20927;-84
2023/01/19 02:54:35;;;;;;;41.60;27.52;;;;;;;1.21;100.00;66912.91;5028716;28;20094;-83
2023/01/19 02:57:26;;;;;;;33.63;23.83;;;;;;;1.19;100.00;66906.00;5027658;28;20135;-84
2023/01/19 03:00:22;;;;;;;40.40;24.17;;;;;;;1.19;100.00;66910.69;5031479;28;20046;-84
2023/01/19 03:03:09;;;;;;;38.67;25.02;;;;;;;1.18;100.00;66912.75;5032975;28;20037;-83
2023/01/19 03:05:34;;;;;;;36.40;19.77;;;;;;;1.20;100.00;66911.81;5028978;28;20544;-84
2023/01/19 03:08:02;;;;;;;35.78;21.27;;;;;;;;;;5030456;28;20137;-84
2023/01/19 03:10:57;;;;;;;32.23;20.53;;;;;;;1.17;100.00;66908.44;5030343;28;20095;-84
2023/01/19 03:13:22;;;;;;;36.35;24.15;;;;;;;;;;5025488;28;20041;-84
2023/01/19 03:15:48;;;;;;;33.22;19.80;;;;;;;;;;5033448;28;20057;-84
2023/01/19 03:18:13;;;;;;;24.83;14.10;;;;;;;;;;5037819;28;20044;-84
2023/01/19 03:20:40;;;;;;;35.13;23.33;;;;;;;0.99;100.00;66889.28;5032775;28;20056;-84
2023/01/19 03:23:09;;;;;;;21.08;13.20;;;;;;;0.97;100.00;66887.03;5033594;28;20397;-84
2023/01/19 03:25:42;;;;;;;31.73;22.40;;;;;;;0.92;100.00;66880.84;5037789;28;20053;-84
2023/01/19 03:28:07;;;;;;;31.23;22.50;;;;;;;0.90;100.00;66879.16;5037843;28;20049;-83
2023/01/19 03:30:38;;;;;;;37.35;25.17;;;;;;;0.87;100.00;66875.78;5029373;28;20148;-84
2023/01/19 03:33:15;;;;;;;27.67;19.30;;;;;;;;;;5036391;28;20041;-85
2023/01/19 03:35:47;;;;;;;29.40;18.70;;;;;;;0.75;100.00;66862.84;5034954;28;20136;-84
2023/01/19 03:38:17;;;;;;;30.50;21.73;;;;;;;0.70;100.00;66861.91;5031825;28;20045;-84
2023/01/19 03:40:44;;;;;;;38.78;27.35;;;;;;;0.66;100.00;66853.28;5036234;28;20067;-85
2023/01/19 03:43:11;;;;;;;20.75;11.73;;;;;;;0.62;100.00;66848.78;5035813;28;20068;-84
2023/01/19 03:45:38;;;;;;;28.55;19.50;;;;;;;0.60;100.00;66846.53;5040534;28;20049;-84
2023/01/19 03:48:04;;;;;;;36.75;22.77;;;;;;;0.60;100.00;66846.53;5040053;28;20136;-84
2023/01/19 03:50:30;;;;;;;35.20;22.75;;;;;;;;;;5028924;28;20056;-84
2023/01/19 03:53:10;;;;;;;39.05;25.65;;;;;;;0.61;100.00;66839.25;5033836;28;20128;-84
2023/01/19 03:55:37;;;;;;;31.63;19.48;;;;;;;0.58;100.00;66843.72;5033698;28;20042;-84
2023/01/19 03:58:03;;;;;;;26.13;17.45;;;;;;;0.51;100.00;66839.03;5034201;28;20068;-85
2023/01/19 04:00:29;;;;;;;30.08;20.65;;;;;;;0.39;100.00;66822.91;5036525;28;20041;-84
2023/01/19 04:02:54;;;;;;;33.35;22.38;;;;;;;0.34;100.00;66817.28;5030171;28;20045;-83
2023/01/19 04:05:20;;;;;;;23.42;14.23;;;;;;;;;;5032427;28;20044;-83
2023/01/19 04:07:48;;;;;;;25.80;18.73;;;;;;;0.20;100.00;66805.28;5035587;28;20049;-84
2023/01/19 04:10:15;;;;;;;32.53;23.30;;;;;;;0.19;100.00;66800.97;5030707;28;20073;-83
2023/01/19 04:12:40;;;;;;;28.35;18.77;;;;;;;0.13;100.00;66794.78;5038769;28;20053;-84
2023/01/19 04:15:06;;;;;;;27.17;17.75;;;;;;;0.12;100.00;66793.69;5037591;28;20473;-83
2023/01/19 04:17:32;;;;;;;28.83;17.35;;;;;;;0.10;100.00;66791.41;5036617;28;20393;-84
2023/01/19 04:19:57;;;;;;;34.30;24.60;;;;;;;0.14;100.00;66795.34;5035517;28;20045;-83
2023/01/19 04:22:23;;;;;;;37.08;23.50;;;;;;;0.15;100.00;66797.06;5033153;28;20049;-84
2023/01/19 04:24:48;;;;;;;26.15;17.67;;;;;;;0.13;100.00;66796.84;5038178;28;20041;-83
2023/01/19 04:27:15;;;;;;;30.67;21.27;;;;;;;0.13;100.00;66794.78;5037720;28;20055;-83
2023/01/19 04:29:41;;;;;;;29.92;20.00;;;;;;;0.12;100.00;66793.13;5040679;28;20052;-84
2023/01/19 04:32:06;;;;;;;36.08;26.17;;;;;;;;;;5039744;28;20121;-83
2023/01/19 04:34:31;;;;;;;33.55;23.27;;;;;;;;;;5032030;28;20068;-83
2023/01/19 04:36:57;;;;;;;33.35;19.83;;;;;;;0.16;100.00;66797.59;5030793;28;20033;-83
2023/01/19 04:39:22;;;;;;;20.15;11.77;;;;;;;0.17;100.00;66798.72;5033380;28;20041;-84
2023/01/19 04:41:47;;;;;;;32.78;22.52;;;;;;;0.19;100.00;66804.16;5030359;28;20033;-84
2023/01/19 04:44:13;;;;;;;32.25;21.98;;;;;;;0.22;100.00;66804.34;5045415;28;20470;-83
2023/01/19 04:46:39;;;;;;;32.85;23.73;;;;;;;0.26;100.00;66814.09;5032988;28;20048;-85
2023/01/19 04:49:04;;;;;;;38.33;27.95;;;;;;;0.30;100.00;66815.41;5034978;28;20045;-83
2023/01/19 04:51:29;;;;;;;25.83;17.85;;;;;;;0.31;100.00;66808.69;5037346;28;20049;-83
2023/01/19 04:53:56;;;;;;;29.75;20.67;;;;;;;0.31;100.00;66816.53;5029529;28;20041;-84
2023/01/19 04:56:21;;;;;;;33.22;26.15;;;;;;;;;;5029062;28;20481;-84
2023/01/19 04:58:47;;;;;;;36.42;26.05;;;;;;;0.35;100.00;66821.03;5029018;28;20048;-83
2023/01/19 05:01:12;;;;;;;30.35;18.15;;;;;;;0.35;100.00;66818.97;5029897;28;20045;-83
2023/01/19 05:03:39;;;;;;;27.85;17.27;;;;;;;0.33;100.00;66816.72;5036940;28;20041;-83
2023/01/19 05:06:05;;;;;;;20.80;13.27;;;;;;;0.31;100.00;66813.91;5034231;28;20034;-83
2023/01/19 05:08:30;;;;;;;21.40;14.65;;;;;;;0.29;100.00;66814.28;5047426;28;20084;-84
2023/01/19 05:10:56;;;;;;;21.33;16.08;;;;;;;0.27;100.00;66809.41;5037163;28;20584;-83
2023/01/19 05:13:22;;;;;;;17.00;11.45;;;;;;;0.22;100.00;66807.53;5031484;28;20045;-83
2023/01/19 05:15:47;;;;;;;25.38;19.17;;;;;;;;;;5032347;28;20041;-83
2023/01/19 05:18:13;;;;;;;23.52;16.10;;;;;;;0.19;100.00;66795.75;5030842;28;20544;-83
2023/01/19 05:20:39;;;;;;;21.83;14.57;;;;;;;0.16;100.00;66798.16;5035406;28;20071;-85
2023/01/19 05:23:04;;;;;;;25.15;19.50;;;;;;;0.11;100.00;66792.53;5032097;28;20509;-83
2023/01/19 05:25:29;;;;;;;26.17;18.23;;;;;;;0.13;100.00;66794.78;5037412;28;20496;-83
2023/01/19 05:27:55;;;;;;;29.40;22.65;;;;;;;0.14;100.00;66795.34;5022665;28;20680;-83
2023/01/19 05:30:20;;;;;;;24.15;15.15;;;;;;;0.13;100.00;66794.78;5028230;28;20064;-83
2023/01/19 05:32:46;;;;;;;23.00;17.73;;;;;;;0.15;100.00;66797.06;5031069;28;20493;-83
2023/01/19 05:35:12;;;;;;;23.30;16.52;;;;;;;0.18;100.00;66799.88;5029359;28;20083;-83
2023/01/19 05:37:38;;;;;;;28.92;23.38;;;;;;;0.20;100.00;66802.09;5027771;28;20045;-83
2023/01/19 05:40:04;;;;;;;31.27;24.52;;;;;;;0.24;100.00;66809.22;5025663;28;20050;-83
2023/01/19 05:42:30;;;;;;;20.70;14.10;;;;;;;0.27;100.00;66812.03;5029114;28;20045;-83
2023/01/19 05:44:56;;;;;;;26.23;19.60;;;;;;;0.29;100.00;66814.28;5024073;28;21511;-82
2023/01/19 05:47:21;;;;;;;19.73;12.75;;;;;;;0.31;100.00;66813.91;5027794;28;20053;-82
2023/01/19 05:49:46;;;;;;;21.83;14.48;;;;;;;0.33;100.00;66816.72;5026565;28;20558;-83
2023/01/19 05:52:12;;;;;;;16.77;11.82;;;;;;;0.34;100.00;66817.28;5030450;28;20455;-83
2023/01/19 05:54:39;;;;;;;22.10;15.40;;;;;;;0.35;100.00;66813.19;5028747;28;20051;-83
2023/01/19 05:57:05;;;;;;;20.02;14.68;;;;;;;0.34;100.00;66817.84;5029576;28;20042;-83
2023/01/19 05:59:30;;;;;;;20.13;14.32;;;;;;;0.34;100.00;66812.06;5027616;28;20040;-83
2023/01/19 06:01:56;;;;;;;18.20;12.07;;;;;;;;;;5027377;28;20116;-83
2023/01/19 06:04:21;;;;;;;18.17;13.25;;;;;;;0.32;100.00;66817.66;5030510;28;20200;-83
2023/01/19 06:06:48;;;;;;;19.00;13.98;;;;;;;0.31;100.00;66813.91;5026141;28;20541;-83
2023/01/19 06:09:13;;;;;;;18.10;11.02;;;;;;;0.33;100.00;66816.72;5026214;28;20049;-83
2023/01/19 06:11:39;;;;;;;19.40;13.73;;;;;;;0.35;100.00;66818.41;5026032;28;20576;-83
2023/01/19 06:14:04;;;;;;;13.88;8.77;;;;;;;0.33;100.00;66816.16;5029854;28;20382;-83
2023/01/19 06:16:29;;;;;;;13.43;8.30;;;;;;;;;;5028008;28;20499;-83
2023/01/19 06:18:55;;;;;;;17.35;12.25;;;;;;;0.36;100.00;66814.31;5031181;28;20497;-83
2023/01/19 06:21:20;;;;;;;16.70;11.63;;;;;;;0.34;100.00;66817.84;5029554;28;20408;-83
2023/01/19 06:23:45;;;;;;;12.90;8.93;;;;;;;0.35;100.00;66818.97;5025531;28;20057;-83
2023/01/19 06:26:11;;;;;;;20.10;13.55;;;;;;;;;;5027623;28;20151;-83
2023/01/19 06:28:36;;;;;;;18.73;11.90;;;;;;;0.36;100.00;66814.31;5025962;28;20060;-83
2023/01/19 06:31:02;;;;;;;11.55;6.60;;;;;;;;;;5024643;28;20045;-83
2023/01/19 06:33:27;;;;;;;15.50;10.35;;;;;;;;;;5031993;28;20049;-82
2023/01/19 06:35:53;;;;;;;19.80;10.48;;;;;;;0.37;100.00;66815.41;5028806;28;21022;-83
2023/01/19 06:38:19;;;;;;;17.70;10.50;;;;;;;0.39;100.00;66823.47;5028243;28;20124;-82
2023/01/19 06:40:51;;;;;;;13.15;8.50;;;;;;;0.39;100.00;66817.69;5034123;28;20044;-83
2023/01/19 06:43:17;;;;;;;15.10;9.77;;;;;;;0.38;100.00;66822.34;5030832;28;20256;-82
2023/01/19 06:45:42;;;;;;;20.80;13.88;;;;;;;;;;5035620;28;20129;-83
2023/01/19 06:48:08;;;;;;;15.85;9.70;;;;;;;0.33;100.00;66821.41;5036868;28;20057;-83
2023/01/19 06:50:33;;;;;;;12.13;7.32;;;;;;;0.29;100.00;66814.28;5031447;28;20060;-83
2023/01/19 06:52:59;;;;;;;16.67;8.55;;;;;;;0.31;100.00;66816.53;5031488;28;21241;-83
2023/01/19 06:55:24;;;;;;;8.57;4.78;;;;;;;0.26;100.00;66811.47;5031236;28;20038;-83
2023/01/19 06:57:57;;;;;;;21.50;14.25;;;;;;;;;;5028218;28;20067;-82
2023/01/19 07:00:23;;;;;;;25.38;15.55;;;;;;;0.30;100.00;66813.34;5033253;28;20045;-83
2023/01/19 07:02:48;;;;;;;25.48;18.10;;;;;;;0.30;100.00;66813.34;5029782;28;20131;-83
2023/01/19 07:05:14;;;;;;;20.33;12.57;;;;;;;0.33;100.00;66816.16;5032549;28;20051;-83
2023/01/19 07:07:41;;;;;;;22.60;13.90;;;;;;;;;;5030806;28;20525;-83
2023/01/19 07:10:08;;;;;;;17.20;10.13;;;;;;;0.33;100.00;66816.16;5031034;28;20132;-83
2023/01/19 07:12:34;;;;;;;20.38;9.93;;;;;;;0.37;100.00;66820.66;5035867;28;20057;-83
2023/01/19 07:14:59;;;;;;;16.02;7.78;;;;;;;0.39;100.00;66822.91;5036772;28;20409;-83
2023/01/19 07:17:25;;;;;;;25.23;14.65;;;;;;;0.41;100.00;66825.72;5026216;28;20042;-83
2023/01/19 07:19:51;;;;;;;25.50;15.20;;;;;;;0.41;100.00;66825.72;5030747;28;20025;-83
2023/01/19 07:22:16;;;;;;;22.08;12.35;;;;;;;;;;5027253;28;20056;-83
2023/01/19 07:24:42;;;;;;;25.33;15.73;;;;;;;0.44;100.00;66829.09;5030221;28;20045;-83
2023/01/19 07:27:07;;;;;;;22.42;13.45;;;;;;;;;;5035267;28;20041;-83
2023/01/19 07:29:32;;;;;;;25.02;14.57;;;;;;;0.49;100.00;66833.59;5030696;28;20087;-83
2023/01/19 07:31:58;;;;;;;24.95;15.20;;;;;;;0.50;100.00;66835.28;5031402;28;20596;-83
2023/01/19 07:34:24;;;;;;;15.13;10.23;;;;;;;0.51;100.00;66839.03;5030443;28;20536;-83
2023/01/19 07:36:49;;;;;;;24.45;15.25;;;;;;;0.55;100.00;66840.91;5024668;28;20050;-83
2023/01/19 07:39:14;;;;;;;30.42;18.45;;;;;;;;;;5030169;28;20496;-83
2023/01/19 07:41:40;;;;;;;19.98;10.65;;;;;;;0.65;100.00;66852.16;5024415;28;20096;-83
2023/01/19 07:44:06;;;;;;;23.85;12.95;;;;;;;0.69;100.00;66856.09;5028091;28;20060;-83
2023/01/19 07:46:31;;;;;;;14.88;7.35;;;;;;;0.73;100.00;66860.03;5023521;28;20033;-83
2023/01/19 07:48:56;;;;;;;24.02;13.57;;;;;;;;;;5031126;28;20488;-83
2023/01/19 07:51:22;;;;;;;23.50;12.70;;;;;;;0.81;100.00;66869.03;5037550;28;20045;-83
2023/01/19 07:53:50;;;;;;;23.20;10.68;;;;;;;;;;5026697;28;20033;-83
2023/01/19 07:56:15;;;;;;;14.95;8.52;;;;;;;0.91;100.00;66880.28;5031827;28;20037;-84
2023/01/19 07:58:41;;;;;;;8.93;5.97;;;;;;;;;;5029174;28;20753;-84
2023/01/19 08:01:10;;;;;;;24.27;13.25;;;;;;;;;;5024562;28;20049;-84
2023/01/19 08:03:36;;;;;;;17.15;9.35;;;;;;;;;;5028593;28;20030;-83
2023/01/19 08:06:03;;;;;;;10.70;7.28;;;;;;;0.92;100.00;66875.59;5033955;28;20634;-84
2023/01/19 08:08:30;;;;;;;15.05;8.68;;;;;;;0.93;100.00;66881.97;4998381;28;20048;-84
2023/01/19 08:10:55;;;;;;;9.45;5.45;;;;;;;0.96;100.00;66887.97;4984086;28;20553;-84
2023/01/19 08:13:21;;;;;;;15.25;9.25;;;;;;;0.99;100.00;66889.28;5000306;28;20049;-83
2023/01/19 08:15:53;;;;;;;15.68;9.25;;;;;;;0.99;100.00;66889.28;4998079;28;20509;-83
2023/01/19 08:18:19;;;;;;;14.38;7.47;;;;;;;1.01;100.00;66886.31;4998474;28;20038;-83
2023/01/19 08:20:45;;;;;;;20.95;10.40;;;;;;;;;;5000369;28;20053;-84
2023/01/19 08:23:11;;;;;;;14.82;7.30;;;;;;;;;;5005612;28;20076;-83
2023/01/19 08:25:41;;;;;;;20.85;10.73;;;;;;;1.10;100.00;66895.88;5004019;28;20053;-83
2023/01/19 08:28:07;;;;;;;11.50;6.72;;;;;;;1.10;100.00;66901.13;4996682;28;20058;-84
2023/01/19 08:30:32;;;;;;;16.30;7.75;;;;;;;;;;4982420;28;20046;-84
2023/01/19 08:33:02;;;;;;;12.07;7.35;;;;;;;;;;5006968;28;20542;-83
2023/01/19 08:35:36;;;;;;;17.02;9.43;;;;;;;1.13;100.00;66907.66;5031346;28;20048;-83
2023/01/19 08:38:03;;;;;;;12.63;6.65;;;;;;;1.12;100.00;66903.94;5026760;28;20042;-83
2023/01/19 08:40:29;;;;;;;16.65;7.68;;;;;;;;;;5028886;28;20497;-83
2023/01/19 08:43:06;;;;;;;17.15;9.32;;;;;;;1.15;100.00;66909.34;5034440;28;20052;-84
2023/01/19 08:45:34;;;;;;;13.85;7.75;;;;;;;1.15;100.00;66900.94;5029672;28;20984;-84
2023/01/19 08:48:00;;;;;;;18.17;6.88;;;;;;;1.15;100.00;66906.16;5030548;28;20489;-83
2023/01/19 08:50:30;;;;;;;11.82;6.50;;;;;;;1.15;100.00;66906.72;5027444;28;20045;-84
2023/01/19 08:53:00;;;;;;;13.48;5.50;;;;;;;1.14;100.00;66905.59;5028650;28;20052;-84
2023/01/19 08:55:27;;;;;;;13.73;6.40;;;;;;;1.13;100.00;66907.09;5021678;28;20140;-84
2023/01/19 08:57:54;;;;;;;14.35;7.80;;;;;;;1.12;100.00;66903.94;5057124;22;20099;-83
2023/01/19 09:00:20;;;;;;;22.35;9.38;;;;;;;1.12;100.00;66905.97;5056199;28;20044;-83
2023/01/19 09:02:45;;;;;;;17.83;8.23;;;;;;;;;;5058786;28;20043;-83
2023/01/19 09:05:11;;;;;;;17.75;6.93;;;;;;;1.09;100.00;66900.56;5054689;28;20132;-83
2023/01/19 09:07:36;;;;;;;18.05;8.45;;;;;;;;;;5048985;28;20071;-83
2023/01/19 09:10:05;;;;;;;16.25;6.85;;;;;;;1.04;100.00;66894.91;5036230;28;20045;-83
2023/01/19 09:12:31;;;;;;;17.27;8.27;;;;;;;;;;5037622;28;20523;-83
2023/01/19 09:14:56;;;;;;;17.45;8.02;;;;;;;1.04;100.00;66894.91;5033212;28;20072;-83
2023/01/19 09:17:21;;;;;;;16.08;7.97;;;;;;;;;;5043288;28;20139;-83
2023/01/19 09:19:47;;;;;;;21.45;8.27;;;;;;;1.04;100.00;66894.38;5032844;28;20056;-83
2023/01/19 09:22:12;;;;;;;10.05;6.55;;;;;;;1.03;100.00;66893.78;5026939;28;20404;-83
2023/01/19 09:24:37;;;;;;;11.52;6.57;;;;;;;;;;5029616;28;20042;-82
2023/01/19 09:27:03;;;;;;;13.85;8.48;;;;;;;;;;5032548;28;20057;-83
2023/01/19 09:29:28;;;;;;;20.25;6.85;;;;;;;1.12;100.00;66905.97;5031266;28;20049;-82
2023/01/19 09:31:53;;;;;;;18.75;8.50;;;;;;;;;;5032272;28;20052;-83
2023/01/19 09:34:19;;;;;;;15.68;8.35;;;;;;;1.17;100.00;66911.03;5030852;28;20044;-83
2023/01/19 09:36:45;;;;;;;17.33;9.38;;;;;;;1.19;100.00;66910.69;5044111;28;20496;-83
2023/01/19 09:39:11;;;;;;;9.80;5.50;;;;;;;;;;5036078;28;20033;-83
2023/01/19 09:41:38;;;;;;;18.95;9.65;;;;;;;1.22;100.00;66914.06;5040966;28;20051;-83
2023/01/19 09:44:04;;;;;;;20.27;9.18;;;;;;;1.24;100.00;66916.31;5019989;28;20038;-82
2023/01/19 09:46:40;;;;;;;24.55;9.07;;;;;;;1.24;100.00;66918.94;5033925;28;20773;-83
2023/01/19 09:49:15;;;;;;;18.58;8.63;;;;;;;;;;5033327;28;20428;-83
2023/01/19 09:51:45;;;;;;;16.02;6.47;;;;;;;1.27;100.00;66919.69;5032298;28;20045;-82
2023/01/19 09:54:16;;;;;;;20.52;11.23;;;;;;;1.31;100.00;66924.75;5031056;28;20132;-83
2023/01/19 09:56:42;;;;;;;20.52;9.52;;;;;;;;;;5032322;28;20392;-83
2023/01/19 09:59:16;;;;;;;24.23;11.80;;;;;;;;;;5023124;28;20136;-83
2023/01/19 10:01:50;;;;;;;28.00;13.88;;;;;;;;;;5029149;28;20037;-83
2023/01/19 10:04:15;;;;;;;27.30;15.63;;;;;;;;;;5027602;28;20558;-83
2023/01/19 10:06:41;;;;;;;27.55;18.05;;;;;;;;;;5029666;28;20041;-83
2023/01/19 10:09:19;;;;;;;24.15;12.55;;;;;;;1.57;100.00;66952.88;5028495;28;20036;-83
2023/01/19 10:11:56;;;;;;;22.67;12.30;;;;;;;;;;5032141;28;20034;-83
2023/01/19 10:14:31;;;;;;;27.42;16.35;;;;;;;1.70;100.00;66970.16;5030781;28;20049;-82
2023/01/19 10:17:25;;;;;;;29.05;17.40;;;;;;;1.76;100.00;66968.47;5031672;28;20175;-82
2023/01/19 10:19:54;;;;;;;20.73;11.05;;;;;;;1.75;100.00;66967.34;5031028;28;20080;-82
2023/01/19 10:22:22;;;;;;;25.52;12.23;;;;;;;1.76;100.00;66973.72;5022717;28;20046;-82
2023/01/19 10:24:52;;;;;;;26.45;13.82;;;;;;;1.74;100.00;66972.03;5031311;28;20034;-82
2023/01/19 10:27:23;;;;;;;28.33;19.30;;;;;;;1.79;100.00;66971.88;5029554;28;20042;-82
2023/01/19 10:29:48;;;;;;;25.30;15.68;;;;;;;;;;5032973;28;20045;-82
2023/01/19 10:32:20;;;;;;;26.88;12.85;;;;;;;1.80;100.00;66978.22;5031790;28;20519;-82
2023/01/19 10:34:46;;;;;;;28.05;15.98;;;;;;;1.84;100.00;66987.97;5030268;28;20132;-82
2023/01/19 10:37:26;;;;;;;25.98;15.77;;;;;;;1.92;100.00;66991.75;5033074;28;20544;-81
2023/01/19 10:40:01;;;;;;;29.98;16.45;;;;;;;2.03;100.00;67004.13;5031802;28;20045;-81
2023/01/19 10:42:28;;;;;;;31.60;18.15;;;;;;;;;;5032886;28;20120;-82
2023/01/19 10:44:53;;;;;;;26.73;18.08;;;;;;;2.24;100.00;67026.66;5032611;28;20048;-82
2023/01/19 10:47:20;;;;;;;23.48;12.25;;;;;;;;;;5035672;28;20115;-83
2023/01/19 10:49:46;;;;;;;28.85;15.93;;;;;;;;;;5034857;28;20054;-82
2023/01/19 10:52:27;;;;;;;21.92;14.73;;;;;;;2.39;100.00;67043.00;5037728;28;20038;-83
2023/01/19 10:54:54;;;;;;;19.92;11.45;;;;;;;2.40;100.00;67039.44;5039643;28;20060;-81
2023/01/19 10:57:39;;;;;;;25.38;12.40;;;;;;;2.40;100.00;67044.69;5038512;28;20438;-83
2023/01/19 11:00:25;;;;;;;19.80;9.02;;;;;;;2.45;100.00;67055.59;5036612;28;20053;-83
2023/01/19 11:02:51;;;;;;;18.77;10.23;;;;;;;2.51;100.00;67055.97;5048998;28;20052;-82
2023/01/19 11:05:22;;;;;;;18.48;8.55;;;;;;;2.56;100.00;67061.59;5042686;28;20037;-83
2023/01/19 11:07:48;;;;;;;18.58;8.52;;;;;;;2.56;100.00;67061.59;5056164;28;20118;-83
2023/01/19 11:10:16;;;;;;;21.48;11.05;;;;;;;;;;5034464;28;20396;-82
2023/01/19 11:12:54;;;;;;;24.93;9.93;;;;;;;2.68;100.00;67070.44;5044565;28;20049;-83
2023/01/19 11:15:24;;;;;;;16.17;9.45;;;;;;;;;;5042979;28;20330;-83
2023/01/19 11:17:51;;;;;;;18.27;8.20;;;;;;;2.72;100.00;67079.63;5050119;28;20680;-83
2023/01/19 11:20:24;;;;;;;19.55;7.85;;;;;;;;;;5055904;28;20045;-82
2023/01/19 11:23:04;;;;;;;20.02;8.45;;;;;;;2.80;100.00;67082.84;5034916;28;20065;-83
2023/01/19 11:25:31;;;;;;;17.23;9.73;;;;;;;;;;5035200;28;20059;-83
2023/01/19 11:27:57;;;;;;;17.80;10.45;;;;;;;2.92;100.00;67101.63;5041311;28;20057;-83
2023/01/19 11:30:23;;;;;;;17.75;10.68;;;;;;;;;;5028654;28;20046;-83
2023/01/19 11:32:49;;;;;;;21.45;10.70;;;;;;;;;;5034815;28;20408;-83
2023/01/19 11:35:31;;;;;;;25.55;9.10;;;;;;;;;;5037246;28;20048;-83
2023/01/19 11:38:12;;;;;;;15.95;8.20;;;;;;;;;;5045581;28;20049;-82
2023/01/19 11:40:37;;;;;;;14.98;7.47;;;;;;;;;;5033498;28;20042;-83
2023/01/19 11:43:03;;;;;;;17.88;9.65;;;;;;;3.34;100.00;67148.41;5042398;28;20074;-83
2023/01/19 11:45:31;;;;;;;19.02;9.82;;;;;;;3.44;100.00;67159.13;5056055;28;20104;-83
2023/01/19 11:47:56;;;;;;;23.35;11.25;;;;;;;;;;5017687;28;20046;-83
2023/01/19 11:50:23;;;;;;;17.85;9.32;;;;;;;;;;5052657;28;20074;-83
2023/01/19 11:52:52;;;;;;;20.02;9.00;;;;;;;;;;5038684;28;20045;-83
2023/01/19 11:55:21;;;;;;;22.77;7.65;;;;;;;;;;5043191;28;20118;-83
2023/01/19 11:57:48;;;;;;;21.08;9.32;;;;;;;;;;5039817;28;20069;-82
2023/01/19 12:00:27;;;;;;;21.40;9.52;;;;;;;3.74;100.00;67192.41;5045979;28;20051;-83
2023/01/19 12:03:11;;;;;;;24.50;8.57;;;;;;;3.78;100.00;67191.09;5037192;28;20045;-83
2023/01/19 12:05:39;;;;;;;12.43;7.38;;;;;;;;;;5044901;28;20056;-83
2023/01/19 12:08:08;;;;;;;20.60;9.07;;;;;;;;;;5054868;28;20045;-83
2023/01/19 12:10:37;;;;;;;;;;;;;;;3.88;100.00;67201.78;5034133;28;20459;-83
2023/01/19 12:13:02;;;;;;;18.88;8.30;;;;;;;3.87;100.00;67200.66;5036434;28;19917;-83
2023/01/19 12:15:43;;;;;;;19.58;9.32;;;;;;;;;;5036039;28;20038;-83